Time;durP1;ratioP1;P1;durP2;ratioP2;P2;SDS_P1;SDS_P2;PMS_P1;PMS_P2;Temp;Humidity;BMP_temperature;BMP_pressure;BME280_temperature;BME280_humidity;BME280_pressure;Samples;Min_cycle;Max_cycle;Signal;HPM_P1;HPM_P2
2023/12/12 00:00:30;;;;;;;18.57;16.20;;;;;;;5.34;91.72;92483.47;5110397;28;20192;-72
2023/12/12 00:02:56;;;;;;;18.43;16.47;;;;;;;5.47;91.67;92488.22;5110031;28;20243;-72
2023/12/12 00:05:22;;;;;;;17.20;15.60;;;;;;;5.99;89.50;92476.06;5110654;28;20188;-72
2023/12/12 00:07:47;;;;;;;23.90;16.40;;;;;;;6.09;88.29;92465.75;5109950;28;20297;-72
2023/12/12 00:10:13;;;;;;;19.07;17.27;;;;;;;5.79;89.92;92459.66;5110278;28;20195;-72
2023/12/12 00:12:38;;;;;;;21.33;17.93;;;;;;;5.91;89.23;92452.47;5098591;28;20257;-72
2023/12/12 00:15:04;;;;;;;19.77;17.83;;;;;;;5.94;89.19;92459.75;5110146;28;20210;-72
2023/12/12 00:17:30;;;;;;;17.33;15.73;;;;;;;5.51;90.87;92472.97;5109719;28;20180;-72
2023/12/12 00:19:55;;;;;;;20.83;16.87;;;;;;;5.24;91.96;92482.63;5110480;28;20192;-72
2023/12/12 00:22:20;;;;;;;18.60;16.73;;;;;;;5.63;91.73;92476.16;5106763;28;20226;-71
2023/12/12 00:24:46;;;;;;;22.40;17.67;;;;;;;5.55;91.22;92467.03;5101215;28;20595;-71
2023/12/12 00:27:11;;;;;;;19.20;16.43;;;;;;;5.78;90.25;92468.44;5110277;28;20244;-72
2023/12/12 00:29:38;;;;;;;28.47;20.17;;;;;;;5.51;91.21;92489.28;5109569;28;20230;-72
2023/12/12 00:32:04;;;;;;;35.67;23.50;;;;;;;5.56;91.32;92488.53;5110185;28;20179;-71
2023/12/12 00:34:29;;;;;;;42.77;24.13;;;;;;;5.47;90.25;92443.44;5109082;28;20227;-72
2023/12/12 00:36:55;;;;;;;44.27;25.40;;;;;;;5.82;90.73;92480.66;5109816;28;20634;-74
2023/12/12 00:39:20;;;;;;;27.97;19.60;;;;;;;5.95;89.97;92480.22;5109424;28;20226;-74
2023/12/12 00:41:47;;;;;;;18.33;16.30;;;;;;;5.78;89.98;92473.63;5109688;28;20227;-75
2023/12/12 00:44:12;;;;;;;17.37;15.53;;;;;;;5.32;92.12;92490.72;5109810;28;20216;-73
2023/12/12 00:46:37;;;;;;;18.00;16.17;;;;;;;5.52;91.67;92480.50;5109994;28;20176;-73
2023/12/12 00:49:03;;;;;;;25.33;16.80;;;;;;;5.28;91.78;92492.25;5109659;28;20306;-74
2023/12/12 00:51:28;;;;;;;19.80;16.73;;;;;;;5.04;93.76;92491.06;5108870;28;20188;-74
2023/12/12 00:53:53;;;;;;;16.87;15.17;;;;;;;5.65;91.94;92474.09;5108997;28;20218;-74
2023/12/12 00:56:19;;;;;;;17.73;15.97;;;;;;;5.61;90.63;92441.94;5109486;28;20187;-73
2023/12/12 00:58:44;;;;;;;16.87;15.20;;;;;;;5.73;90.79;92476.19;5082713;28;20303;-73
2023/12/12 01:01:11;;;;;;;17.23;15.63;;;;;;;5.36;92.30;92496.16;5107106;28;20214;-73
2023/12/12 01:03:37;;;;;;;14.40;13.30;;;;;;;5.61;91.61;92493.72;5100498;28;20297;-75
2023/12/12 01:06:02;;;;;;;15.73;14.27;;;;;;;5.65;91.88;92480.03;5109649;28;20211;-74
2023/12/12 01:08:28;;;;;;;15.93;14.67;;;;;;;5.70;91.16;92487.03;5111558;28;20222;-75
2023/12/12 01:10:53;;;;;;;14.60;13.40;;;;;;;5.93;90.21;92486.69;5109967;28;20207;-73
2023/12/12 01:13:18;;;;;;;16.03;14.63;;;;;;;4.86;95.11;92487.03;5105667;28;20215;-77
2023/12/12 01:15:44;;;;;;;19.60;15.70;;;;;;;5.39;93.71;92508.59;5113751;28;20229;-73
2023/12/12 01:18:09;;;;;;;15.10;13.63;;;;;;;5.47;92.36;92529.66;5109613;28;20303;-72
2023/12/12 01:20:34;;;;;;;15.90;14.70;;;;;;;5.37;92.00;92516.63;5109108;28;20195;-71
2023/12/12 01:23:00;;;;;;;19.03;17.17;;;;;;;5.29;92.58;92511.16;5109215;28;20228;-71
2023/12/12 01:25:25;;;;;;;16.17;14.63;;;;;;;5.60;91.33;92512.91;5109438;28;20251;-72
2023/12/12 01:27:50;;;;;;;17.40;15.50;;;;;;;5.68;90.64;92509.84;5109000;28;20232;-71
2023/12/12 01:30:16;;;;;;;17.03;15.53;;;;;;;5.82;90.09;92509.16;5109678;28;20212;-71
2023/12/12 01:32:41;;;;;;;16.73;15.13;;;;;;;5.90;89.95;92524.22;5108809;28;20220;-71
2023/12/12 01:35:07;;;;;;;15.90;14.53;;;;;;;5.85;89.57;92506.06;5102656;28;20191;-71
2023/12/12 01:37:32;;;;;;;18.03;15.73;;;;;;;5.91;89.51;92504.28;5108140;28;20190;-71
2023/12/12 01:39:57;;;;;;;17.27;14.83;;;;;;;5.05;89.79;92394.31;5093774;28;20222;-71
2023/12/12 01:42:23;;;;;;;16.07;14.43;;;;;;;5.91;90.56;92501.69;5116570;28;20231;-71
2023/12/12 01:44:48;;;;;;;16.80;14.53;;;;;;;5.86;90.65;92492.09;5087155;28;20193;-71
2023/12/12 01:47:13;;;;;;;13.60;12.50;;;;;;;5.74;90.82;92488.13;5104941;28;20192;-71
2023/12/12 01:49:39;;;;;;;16.60;14.27;;;;;;;5.87;91.02;92479.91;5111837;28;20910;-74
2023/12/12 01:52:05;;;;;;;14.37;13.03;;;;;;;5.59;91.39;92475.06;5113259;28;20237;-71
2023/12/12 01:54:32;;;;;;;15.30;13.97;;;;;;;5.69;92.02;92462.97;5111087;28;20220;-71
2023/12/12 01:56:58;;;;;;;16.43;14.83;;;;;;;5.78;91.04;92456.28;5113196;28;20217;-71
2023/12/12 01:59:24;;;;;;;13.73;12.33;;;;;;;5.78;90.99;92464.03;5112509;28;20224;-71
2023/12/12 02:01:49;;;;;;;13.37;12.27;;;;;;;5.57;91.45;92464.22;5112591;28;20245;-71
2023/12/12 02:04:16;;;;;;;17.23;14.27;;;;;;;5.50;91.93;92476.59;5112230;28;20287;-72
2023/12/12 02:06:44;;;;;;;15.47;14.17;;;;;;;5.59;91.81;92508.72;5111901;28;20191;-71
2023/12/12 02:09:10;;;;;;;15.33;13.10;;;;;;;5.67;91.63;92506.47;5112224;28;20220;-72
2023/12/12 02:11:36;;;;;;;14.80;13.50;;;;;;;5.63;91.57;92502.81;5112368;28;20268;-71
2023/12/12 02:14:01;;;;;;;16.20;14.73;;;;;;;5.72;90.67;92510.88;5111997;28;20219;-71
2023/12/12 02:16:27;;;;;;;24.57;20.77;;;;;;;5.80;90.31;92529.34;5112487;28;20218;-71
2023/12/12 02:18:52;;;;;;;29.07;20.40;;;;;;;5.70;90.33;92510.34;5111736;28;20268;-72
2023/12/12 02:21:21;;;;;;;27.03;20.60;;;;;;;5.51;91.83;92491.88;5112364;28;20220;-71
2023/12/12 02:23:49;;;;;;;21.73;19.43;;;;;;;5.42;92.76;92483.00;5111843;28;20859;-72
2023/12/12 02:26:16;;;;;;;22.90;18.40;;;;;;;5.31;92.83;92473.63;5112121;28;20218;-71
2023/12/12 02:28:41;;;;;;;27.37;20.33;;;;;;;5.38;93.06;92489.72;5111663;28;20220;-71
2023/12/12 02:31:08;;;;;;;22.43;18.80;;;;;;;5.41;93.26;92497.00;5108499;28;20199;-70
2023/12/12 02:33:33;;;;;;;22.07;19.77;;;;;;;5.30;93.64;92492.78;5111529;28;20231;-71
2023/12/12 02:35:59;;;;;;;23.50;19.20;;;;;;;4.99;95.16;92501.34;5112151;28;20184;-71
2023/12/12 02:38:24;;;;;;;21.07;18.73;;;;;;;5.31;93.96;92509.09;5111439;28;20239;-71
2023/12/12 02:40:49;;;;;;;30.03;21.70;;;;;;;4.59;96.40;92516.53;5123807;28;20190;-72
2023/12/12 02:43:15;;;;;;;34.50;22.47;;;;;;;4.43;98.44;92531.09;5094819;28;20212;-71
2023/12/12 02:45:40;;;;;;;24.57;20.87;;;;;;;4.96;96.78;92531.06;5112502;28;20195;-71
2023/12/12 02:48:05;;;;;;;26.87;21.70;;;;;;;5.01;95.65;92529.56;5111135;28;20208;-71
2023/12/12 02:50:31;;;;;;;27.80;21.50;;;;;;;5.23;94.77;92546.53;5093650;28;20196;-71
2023/12/12 02:52:56;;;;;;;26.60;21.00;;;;;;;5.37;94.10;92550.28;5111137;28;20228;-72
2023/12/12 02:55:22;;;;;;;28.70;20.80;;;;;;;4.78;95.90;92551.31;5093656;28;20207;-71
2023/12/12 02:57:47;;;;;;;28.70;20.90;;;;;;;5.17;95.27;92549.38;5109891;28;20224;-71
2023/12/12 03:00:13;;;;;;;25.40;20.37;;;;;;;5.14;95.21;92539.50;5112062;28;20186;-71
2023/12/12 03:02:38;;;;;;;29.93;21.07;;;;;;;5.27;94.63;92516.56;5110639;28;20247;-73
2023/12/12 03:05:05;;;;;;;32.70;23.27;;;;;;;4.49;97.87;92522.38;5111283;28;20987;-76
2023/12/12 03:07:30;;;;;;;25.03;22.10;;;;;;;4.36;99.39;92511.63;5110910;28;20176;-73
2023/12/12 03:09:56;;;;;;;30.43;21.40;;;;;;;4.87;98.01;92493.75;5091260;28;20261;-73
2023/12/12 03:12:21;;;;;;;31.87;20.57;;;;;;;4.79;98.07;92473.50;5106955;28;21341;-73
2023/12/12 03:14:47;;;;;;;26.17;20.80;;;;;;;4.47;99.40;92495.97;5103694;28;20216;-73
2023/12/12 03:17:12;;;;;;;30.93;20.10;;;;;;;4.51;100.00;92476.38;5093157;28;20177;-72
2023/12/12 03:19:37;;;;;;;31.00;21.90;;;;;;;4.99;97.61;92478.06;5110657;28;20212;-74
2023/12/12 03:22:03;;;;;;;35.00;21.67;;;;;;;5.01;96.80;92467.47;5079803;28;20284;-73
2023/12/12 03:24:28;;;;;;;29.47;21.30;;;;;;;5.12;96.55;92474.28;5110358;28;20215;-74
2023/12/12 03:26:54;;;;;;;23.77;19.17;;;;;;;5.13;96.54;92481.00;5110957;28;20180;-74
2023/12/12 03:29:19;;;;;;;28.07;18.53;;;;;;;5.32;95.71;92485.56;5092338;28;20263;-74
2023/12/12 03:31:44;;;;;;;20.63;17.60;;;;;;;5.51;93.28;92481.50;5111283;28;20195;-74
2023/12/12 03:34:10;;;;;;;26.63;20.23;;;;;;;5.09;95.84;92493.66;5110195;28;20216;-74
2023/12/12 03:36:35;;;;;;;26.07;19.47;;;;;;;4.70;97.73;92500.09;5092671;28;20189;-74
2023/12/12 03:39:01;;;;;;;25.83;19.40;;;;;;;4.80;97.63;92487.22;5110654;28;20231;-73
2023/12/12 03:41:30;;;;;;;25.20;20.80;;;;;;;4.45;99.57;92484.34;5110763;28;20208;-74
2023/12/12 03:43:55;;;;;;;24.83;20.03;;;;;;;4.83;97.70;92469.41;5110343;28;20235;-76
2023/12/12 03:46:21;;;;;;;22.33;19.27;;;;;;;5.13;96.83;92473.25;5110877;28;20268;-73
2023/12/12 03:48:46;;;;;;;22.33;19.83;;;;;;;5.37;95.27;92484.81;5110117;28;20313;-74
2023/12/12 03:51:12;;;;;;;23.43;19.60;;;;;;;5.50;94.21;92492.13;5104835;28;20187;-74
2023/12/12 03:53:38;;;;;;;20.23;18.10;;;;;;;5.47;94.42;92496.00;5113464;28;20208;-73
2023/12/12 03:56:05;;;;;;;21.70;19.17;;;;;;;5.50;93.53;92486.94;5110060;28;20183;-73
2023/12/12 03:58:30;;;;;;;25.00;18.87;;;;;;;5.35;93.96;92504.97;5109596;28;20239;-73
2023/12/12 04:00:56;;;;;;;22.47;19.50;;;;;;;5.24;95.60;92500.75;5105339;28;20219;-74
2023/12/12 04:03:21;;;;;;;23.03;18.10;;;;;;;5.45;94.71;92500.63;5109596;28;20224;-76
2023/12/12 04:05:47;;;;;;;20.83;16.97;;;;;;;5.19;95.02;92498.13;5109990;28;20264;-73
2023/12/12 04:08:12;;;;;;;20.80;18.57;;;;;;;5.16;95.82;92490.84;5108540;28;20246;-72
2023/12/12 04:10:37;;;;;;;24.10;19.70;;;;;;;4.79;96.68;92504.53;5110405;28;20232;-72
2023/12/12 04:13:03;;;;;;;25.83;19.53;;;;;;;5.24;93.73;92518.88;5109536;28;20231;-72
2023/12/12 04:15:28;;;;;;;20.70;17.73;;;;;;;5.20;93.91;92503.06;5109838;28;20215;-72
2023/12/12 04:17:54;;;;;;;23.23;19.03;;;;;;;4.73;97.86;92512.53;5109876;28;20858;-72
2023/12/12 04:20:19;;;;;;;22.50;19.53;;;;;;;5.36;95.02;92532.41;5110114;28;20249;-72
2023/12/12 04:22:44;;;;;;;23.73;18.30;;;;;;;5.41;93.58;92524.69;5109424;28;20224;-71
2023/12/12 04:25:13;;;;;;;22.93;18.10;;;;;;;5.14;95.33;92544.69;5110316;28;20196;-72
2023/12/12 04:27:39;;;;;;;26.17;18.73;;;;;;;4.90;96.78;92544.97;5109612;28;20236;-72
2023/12/12 04:30:05;;;;;;;27.17;19.23;;;;;;;5.22;94.35;92542.41;5105378;28;20195;-71
2023/12/12 04:32:31;;;;;;;22.33;20.07;;;;;;;5.57;92.77;92537.47;5109559;28;20180;-72
2023/12/12 04:34:57;;;;;;;20.03;17.70;;;;;;;5.18;94.07;92527.63;5109995;28;20256;-71
2023/12/12 04:37:23;;;;;;;19.47;17.40;;;;;;;5.23;94.46;92548.38;5109667;28;20188;-72
2023/12/12 04:39:48;;;;;;;22.23;17.57;;;;;;;5.55;92.64;92531.78;5110048;28;20172;-72
2023/12/12 04:42:13;;;;;;;20.93;18.80;;;;;;;5.30;92.86;92551.50;5109824;28;20256;-72
2023/12/12 04:44:41;;;;;;;21.47;18.53;;;;;;;5.45;93.29;92542.06;5099788;28;20216;-72
2023/12/12 04:47:07;;;;;;;23.93;17.23;;;;;;;4.89;95.43;92552.97;5109973;28;20191;-73
2023/12/12 04:49:32;;;;;;;21.37;17.50;;;;;;;5.04;95.94;92549.75;5109429;28;20226;-72
2023/12/12 04:51:58;;;;;;;19.93;16.47;;;;;;;5.42;94.11;92552.13;5110141;28;20792;-71
2023/12/12 04:54:23;;;;;;;23.23;18.50;;;;;;;5.40;93.85;92556.78;5109390;28;20220;-70
2023/12/12 04:56:48;;;;;;;19.30;17.37;;;;;;;5.51;93.04;92545.47;5110259;28;20206;-72
2023/12/12 04:59:14;;;;;;;18.40;16.53;;;;;;;4.92;95.55;92568.81;5116608;28;20227;-72
2023/12/12 05:01:39;;;;;;;19.87;17.80;;;;;;;5.14;95.70;92562.78;5109483;28;20203;-73
2023/12/12 05:04:04;;;;;;;19.03;17.20;;;;;;;5.42;94.38;92565.06;5109580;28;20219;-73
2023/12/12 05:06:30;;;;;;;20.47;17.13;;;;;;;5.64;93.03;92570.91;5104735;28;20181;-70
2023/12/12 05:08:55;;;;;;;24.40;18.27;;;;;;;5.62;93.51;92568.56;5107839;28;20239;-73
2023/12/12 05:11:21;;;;;;;20.47;18.30;;;;;;;5.64;93.10;92583.84;5109618;28;20180;-72
2023/12/12 05:13:46;;;;;;;23.23;19.07;;;;;;;5.34;94.15;92586.25;5109233;28;20216;-74
2023/12/12 05:16:12;;;;;;;24.30;19.33;;;;;;;5.57;93.49;92588.50;5105378;28;20192;-72
2023/12/12 05:18:38;;;;;;;24.40;19.67;;;;;;;5.47;94.55;92591.00;5108742;28;20227;-73
2023/12/12 05:21:04;;;;;;;25.67;20.77;;;;;;;5.68;93.68;92592.72;5112204;28;20215;-72
2023/12/12 05:23:29;;;;;;;21.87;19.37;;;;;;;5.81;92.33;92584.50;5112850;28;20232;-74
2023/12/12 05:25:54;;;;;;;24.27;19.50;;;;;;;5.75;93.01;92603.63;5113376;28;20188;-73
2023/12/12 05:28:21;;;;;;;25.07;18.87;;;;;;;5.71;92.32;92599.97;5110465;28;20223;-73
2023/12/12 05:30:47;;;;;;;21.37;19.23;;;;;;;5.95;91.97;92601.97;5110739;28;20218;-71
2023/12/12 05:33:15;;;;;;;22.23;19.57;;;;;;;6.02;91.78;92586.22;5112793;28;20216;-71
2023/12/12 05:35:41;;;;;;;28.30;19.47;;;;;;;5.94;93.07;92566.75;5113275;28;20180;-70
2023/12/12 05:38:06;;;;;;;28.63;21.80;;;;;;;5.43;94.50;92595.13;5111638;28;20239;-70
2023/12/12 05:40:32;;;;;;;24.37;19.50;;;;;;;5.67;93.14;92583.34;5113281;28;20951;-70
2023/12/12 05:42:58;;;;;;;28.87;24.43;;;;;;;5.57;95.17;92575.53;5112358;28;20219;-71
2023/12/12 05:45:24;;;;;;;25.57;21.87;;;;;;;5.75;93.83;92569.94;5112779;28;20184;-70
2023/12/12 05:47:49;;;;;;;22.20;19.43;;;;;;;5.83;93.45;92585.06;5111343;28;20232;-70
2023/12/12 05:50:14;;;;;;;21.17;18.87;;;;;;;5.77;93.42;92592.00;5111433;28;20196;-70
2023/12/12 05:52:40;;;;;;;24.60;20.67;;;;;;;5.64;94.16;92586.44;5110629;28;20239;-70
2023/12/12 05:55:05;;;;;;;24.23;17.80;;;;;;;5.56;93.63;92584.31;5119984;28;20294;-70
2023/12/12 05:57:34;;;;;;;22.63;20.03;;;;;;;6.06;92.70;92608.00;5114766;28;20306;-70
2023/12/12 05:59:59;;;;;;;20.90;18.87;;;;;;;6.16;91.72;92621.00;5111634;28;20989;-70
2023/12/12 06:02:25;;;;;;;25.57;19.23;;;;;;;5.45;95.47;92583.47;5111101;28;20200;-71
2023/12/12 06:04:51;;;;;;;19.60;17.57;;;;;;;6.12;93.63;92615.53;5112865;28;20180;-70
2023/12/12 06:07:17;;;;;;;20.03;18.10;;;;;;;5.68;93.73;92618.59;5112940;28;20179;-70
2023/12/12 06:09:43;;;;;;;23.87;18.70;;;;;;;5.89;93.34;92620.31;5112350;28;20216;-71
2023/12/12 06:12:08;;;;;;;19.73;17.63;;;;;;;6.07;92.18;92606.97;5109944;28;20206;-70
2023/12/12 06:14:35;;;;;;;19.53;17.43;;;;;;;6.31;91.53;92608.91;5120644;28;20215;-71
2023/12/12 06:17:00;;;;;;;20.67;17.97;;;;;;;6.17;91.55;92614.78;5116128;28;20238;-71
2023/12/12 06:19:25;;;;;;;20.40;18.23;;;;;;;5.91;92.69;92615.69;5112043;28;20207;-71
2023/12/12 06:21:53;;;;;;;22.50;19.43;;;;;;;6.22;92.50;92604.47;5099256;28;20239;-71
2023/12/12 06:24:19;;;;;;;21.07;18.63;;;;;;;6.54;90.80;92607.69;5112318;28;20228;-71
2023/12/12 06:26:45;;;;;;;19.97;17.77;;;;;;;6.78;89.78;92601.06;5112140;28;20187;-71
2023/12/12 06:29:13;;;;;;;20.03;18.03;;;;;;;6.38;90.97;92600.91;5111783;28;20220;-71
2023/12/12 06:31:39;;;;;;;24.10;17.70;;;;;;;6.67;90.09;92591.69;5103227;28;20172;-70
2023/12/12 06:34:05;;;;;;;19.23;17.40;;;;;;;6.82;89.20;92578.75;5111980;28;20235;-70
2023/12/12 06:36:30;;;;;;;17.20;15.47;;;;;;;6.81;89.68;92584.19;5111988;28;20203;-70
2023/12/12 06:38:56;;;;;;;16.83;15.13;;;;;;;6.88;89.06;92582.91;5111883;28;20778;-71
2023/12/12 06:41:21;;;;;;;20.10;16.63;;;;;;;6.81;89.61;92586.78;5111648;28;20211;-70
2023/12/12 06:43:46;;;;;;;25.87;18.93;;;;;;;6.33;90.83;92574.97;5111445;28;20219;-71
2023/12/12 06:46:12;;;;;;;20.80;18.60;;;;;;;6.56;89.60;92597.84;5094057;28;20187;-70
2023/12/12 06:48:38;;;;;;;24.27;18.63;;;;;;;6.29;90.36;92605.00;5111459;28;20268;-70
2023/12/12 06:51:09;;;;;;;28.43;21.10;;;;;;;6.70;89.12;92601.53;5111906;28;20176;-70
2023/12/12 06:53:34;;;;;;;26.27;19.97;;;;;;;6.49;90.71;92612.84;5111686;28;20234;-70
2023/12/12 06:56:00;;;;;;;22.87;19.33;;;;;;;6.68;89.97;92624.34;5111640;28;20172;-70
2023/12/12 06:58:25;;;;;;;26.00;20.37;;;;;;;6.94;88.97;92641.56;5111189;28;20223;-70
2023/12/12 07:00:51;;;;;;;24.77;20.50;;;;;;;7.16;87.43;92647.34;5093600;28;20238;-70
2023/12/12 07:03:18;;;;;;;22.47;18.73;;;;;;;7.08;86.85;92645.22;5107393;28;20228;-73
2023/12/12 07:05:43;;;;;;;32.07;21.60;;;;;;;6.73;88.66;92652.91;5110349;28;20176;-74
2023/12/12 07:08:08;;;;;;;27.33;22.20;;;;;;;6.77;88.92;92653.19;5098728;28;20302;-72
2023/12/12 07:10:34;;;;;;;28.70;22.73;;;;;;;6.53;88.89;92643.25;5096254;28;20199;-73
2023/12/12 07:12:59;;;;;;;30.30;23.00;;;;;;;6.89;88.47;92664.91;5108915;28;20250;-73
2023/12/12 07:15:27;;;;;;;25.77;21.00;;;;;;;6.63;88.17;92662.47;5123738;28;20195;-74
2023/12/12 07:17:53;;;;;;;28.77;20.30;;;;;;;6.50;88.71;92653.34;5110862;28;20292;-74
2023/12/12 07:20:19;;;;;;;25.50;22.10;;;;;;;7.42;86.31;92661.16;5111300;28;20184;-74
2023/12/12 07:22:44;;;;;;;22.30;18.83;;;;;;;7.70;83.25;92663.25;5110873;28;20231;-73
2023/12/12 07:25:10;;;;;;;22.73;18.70;;;;;;;7.81;83.68;92664.81;5110530;28;20187;-73
2023/12/12 07:27:35;;;;;;;21.23;19.03;;;;;;;7.45;82.78;92658.03;5107409;28;20180;-73
2023/12/12 07:30:00;;;;;;;22.73;20.30;;;;;;;7.73;82.94;92657.53;5109928;28;20207;-73
2023/12/12 07:32:26;;;;;;;23.53;20.10;;;;;;;7.52;82.33;92661.94;5112299;28;20188;-77
2023/12/12 07:34:52;;;;;;;50.53;25.50;;;;;;;6.99;85.02;92651.97;5110208;28;20189;-80
2023/12/12 07:37:18;;;;;;;30.40;22.60;;;;;;;7.22;84.25;92635.16;5111269;28;20195;-73
2023/12/12 07:39:43;;;;;;;42.40;27.30;;;;;;;7.20;85.09;92656.19;5103668;28;20224;-74
2023/12/12 07:42:08;;;;;;;24.10;20.10;;;;;;;7.46;83.32;92646.59;5111056;28;20258;-73
2023/12/12 07:44:34;;;;;;;22.67;20.30;;;;;;;7.80;81.77;92651.03;5105023;28;20232;-70
2023/12/12 07:47:02;;;;;;;34.23;19.13;;;;;;;7.98;80.79;92650.50;5110918;28;20205;-70
2023/12/12 07:49:28;;;;;;;26.67;19.67;;;;;;;8.09;80.62;92657.25;5108722;28;20216;-70
2023/12/12 07:51:54;;;;;;;26.03;19.17;;;;;;;8.30;80.29;92658.03;5110946;28;20195;-70
2023/12/12 07:54:20;;;;;;;27.07;21.53;;;;;;;8.53;79.71;92651.50;5109412;28;20219;-70
2023/12/12 07:56:45;;;;;;;25.33;20.57;;;;;;;8.32;79.05;92653.38;5110786;28;20241;-73
2023/12/12 07:59:11;;;;;;;33.37;20.90;;;;;;;8.07;80.60;92661.97;5109755;28;20228;-73
2023/12/12 08:01:37;;;;;;;23.97;19.77;;;;;;;8.08;80.70;92676.50;5108872;28;20216;-73
2023/12/12 08:04:04;;;;;;;29.23;18.97;;;;;;;8.41;80.13;92687.41;5110088;28;20235;-72
2023/12/12 08:06:30;;;;;;;28.77;21.13;;;;;;;8.20;81.17;92671.81;5110031;28;20215;-78
2023/12/12 08:08:55;;;;;;;22.57;20.03;;;;;;;8.56;80.43;92663.97;5109753;28;20223;-76
2023/12/12 08:11:24;;;;;;;23.87;18.97;;;;;;;8.53;80.04;92646.31;5103690;28;20188;-75
2023/12/12 08:13:50;;;;;;;32.03;21.13;;;;;;;8.50;80.31;92641.63;5112641;28;20259;-76
2023/12/12 08:16:15;;;;;;;25.57;19.93;;;;;;;8.44;81.48;92660.88;5117570;28;20188;-77
2023/12/12 08:18:40;;;;;;;35.37;22.07;;;;;;;8.48;81.25;92647.09;5109417;28;20224;-77
2023/12/12 08:21:08;;;;;;;24.17;19.47;;;;;;;8.86;78.79;92656.84;5110346;28;20215;-76
2023/12/12 08:23:34;;;;;;;23.27;20.73;;;;;;;8.79;79.80;92648.56;5109513;28;20295;-76
2023/12/12 08:26:00;;;;;;;23.10;18.77;;;;;;;8.71;79.85;92662.13;5110237;28;20191;-77
2023/12/12 08:28:26;;;;;;;20.77;18.77;;;;;;;8.97;78.34;92649.75;5109307;28;20220;-75
2023/12/12 08:30:51;;;;;;;21.70;19.27;;;;;;;8.59;79.03;92640.03;5110180;28;20203;-76
2023/12/12 08:33:18;;;;;;;17.30;15.50;;;;;;;8.53;78.68;92628.09;5109708;28;20306;-77
2023/12/12 08:35:43;;;;;;;26.20;20.13;;;;;;;8.75;79.12;92649.34;5110197;28;20183;-76
2023/12/12 08:38:09;;;;;;;28.57;20.17;;;;;;;8.37;79.82;92616.16;5109235;28;20235;-75
2023/12/12 08:40:34;;;;;;;26.17;20.43;;;;;;;8.61;79.08;92622.31;5109644;28;20172;-76
2023/12/12 08:42:59;;;;;;;24.33;20.43;;;;;;;8.73;78.72;92623.56;5096201;28;20228;-76
2023/12/12 08:45:25;;;;;;;26.07;19.43;;;;;;;8.33;82.32;92656.75;5110343;28;20213;-75
2023/12/12 08:47:50;;;;;;;24.87;20.57;;;;;;;8.93;79.57;92627.94;5109123;28;20223;-77
2023/12/12 08:50:15;;;;;;;32.83;21.40;;;;;;;9.07;79.08;92647.13;5110044;28;20187;-76
2023/12/12 08:52:41;;;;;;;21.70;19.13;;;;;;;9.30;78.06;92659.50;5109325;28;20222;-75
2023/12/12 08:55:10;;;;;;;31.80;20.87;;;;;;;9.40;77.80;92647.19;5112653;28;20184;-76
2023/12/12 08:57:36;;;;;;;22.97;18.83;;;;;;;9.28;79.38;92656.38;5113311;28;20202;-75
2023/12/12 09:00:03;;;;;;;26.53;20.17;;;;;;;9.59;78.23;92670.78;5112585;28;20192;-76
2023/12/12 09:02:29;;;;;;;21.83;17.20;;;;;;;10.09;73.63;92659.25;5084843;28;20211;-77
2023/12/12 09:04:54;;;;;;;24.37;18.77;;;;;;;9.92;75.10;92664.84;5109827;28;20180;-76
2023/12/12 09:07:20;;;;;;;33.20;19.57;;;;;;;10.17;72.85;92672.47;5113257;28;20239;-76
2023/12/12 09:09:45;;;;;;;27.07;18.60;;;;;;;10.01;72.81;92657.97;5113692;28;20196;-76
2023/12/12 09:12:11;;;;;;;24.53;19.10;;;;;;;10.03;73.27;92653.28;5113675;28;20184;-76
2023/12/12 09:14:36;;;;;;;23.07;18.77;;;;;;;10.01;74.09;92644.94;5114515;28;20214;-77
2023/12/12 09:17:01;;;;;;;24.97;19.93;;;;;;;10.16;72.90;92644.84;5113731;28;20211;-77
2023/12/12 09:19:27;;;;;;;23.47;19.20;;;;;;;10.42;72.38;92674.88;5112116;28;20208;-77
2023/12/12 09:21:54;;;;;;;26.17;20.47;;;;;;;10.08;73.00;92649.88;5113126;28;20215;-76
2023/12/12 09:24:19;;;;;;;24.80;19.03;;;;;;;10.18;71.94;92681.84;5113376;28;20279;-74
2023/12/12 09:26:45;;;;;;;28.70;19.97;;;;;;;10.20;72.79;92682.38;5113381;28;20183;-77
2023/12/12 09:29:10;;;;;;;25.37;19.03;;;;;;;10.27;72.49;92682.06;5113210;28;20231;-77
2023/12/12 09:31:36;;;;;;;30.40;19.70;;;;;;;10.13;73.23;92666.28;5112924;28;20183;-77
2023/12/12 09:34:02;;;;;;;23.37;19.30;;;;;;;10.14;74.29;92677.47;5095604;28;20220;-77
2023/12/12 09:36:27;;;;;;;22.03;18.27;;;;;;;10.35;74.22;92684.84;5113016;28;20175;-77
2023/12/12 09:38:53;;;;;;;21.87;17.97;;;;;;;10.39;74.02;92683.25;5112815;28;20227;-77
2023/12/12 09:41:22;;;;;;;24.10;18.53;;;;;;;10.43;73.14;92679.03;5112582;28;20207;-77
2023/12/12 09:43:49;;;;;;;20.70;18.30;;;;;;;10.41;73.36;92667.31;5112501;28;20264;-77
2023/12/12 09:46:19;;;;;;;29.70;19.43;;;;;;;10.59;73.20;92669.22;5093161;28;20183;-77
2023/12/12 09:48:47;;;;;;;25.87;19.03;;;;;;;10.45;72.72;92642.22;5103771;28;20220;-76
2023/12/12 09:51:16;;;;;;;25.70;18.50;;;;;;;10.52;74.17;92653.88;5111461;28;20234;-77
2023/12/12 09:53:46;;;;;;;29.07;19.53;;;;;;;10.93;72.36;92660.22;5093922;28;20224;-76
2023/12/12 09:56:15;;;;;;;26.43;20.10;;;;;;;11.29;70.30;92652.75;5108253;28;20187;-76
2023/12/12 09:58:40;;;;;;;22.97;19.50;;;;;;;11.42;69.86;92653.88;5110268;28;20239;-77
2023/12/12 10:01:07;;;;;;;30.70;19.47;;;;;;;11.91;67.88;92651.63;5105682;28;20192;-77
2023/12/12 10:03:32;;;;;;;24.33;19.93;;;;;;;11.42;69.95;92638.97;5111630;28;20219;-76
2023/12/12 10:06:03;;;;;;;29.13;19.23;;;;;;;11.48;68.79;92624.78;5111736;28;20184;-74
2023/12/12 10:08:28;;;;;;;34.40;18.67;;;;;;;11.44;68.95;92654.38;5111824;28;20234;-74
2023/12/12 10:10:54;;;;;;;14.50;13.30;;;;;;;10.83;70.03;92625.63;5112278;28;20237;-75
2023/12/12 10:13:19;;;;;;;16.90;15.20;;;;;;;11.02;70.35;92644.72;5111838;28;20239;-72
2023/12/12 10:15:45;;;;;;;13.90;12.17;;;;;;;11.01;70.65;92620.44;5111971;28;20185;-73
2023/12/12 10:18:10;;;;;;;11.50;10.70;;;;;;;11.06;69.15;92653.56;5112190;28;20227;-73
2023/12/12 10:20:36;;;;;;;10.60;10.00;;;;;;;10.89;68.50;92633.13;5111953;28;20170;-74
2023/12/12 10:23:04;;;;;;;10.07;9.47;;;;;;;11.23;67.94;92665.09;5111592;28;20235;-74
2023/12/12 10:25:32;;;;;;;10.87;10.17;;;;;;;11.27;67.02;92639.16;5111640;28;20177;-74
2023/12/12 10:27:58;;;;;;;9.83;9.23;;;;;;;11.51;66.71;92667.88;5108507;28;20303;-74
2023/12/12 10:30:24;;;;;;;9.93;9.43;;;;;;;11.65;67.43;92681.81;5111321;28;20189;-71
2023/12/12 10:32:51;;;;;;;10.60;10.10;;;;;;;11.60;68.07;92666.16;5111191;28;20258;-71
2023/12/12 10:35:20;;;;;;;11.27;10.67;;;;;;;11.21;67.34;92666.44;5111876;28;20192;-70
2023/12/12 10:37:45;;;;;;;10.53;10.00;;;;;;;11.13;67.58;92665.22;5091531;28;20227;-71
2023/12/12 10:40:21;;;;;;;10.10;9.50;;;;;;;11.77;66.65;92666.47;5112209;28;20188;-70
2023/12/12 10:42:50;;;;;;;9.93;9.40;;;;;;;11.59;67.70;92651.56;5111195;28;20232;-71
2023/12/12 10:45:17;;;;;;;10.20;9.53;;;;;;;11.26;67.47;92656.69;5104728;28;20176;-70
2023/12/12 10:47:45;;;;;;;10.80;10.20;;;;;;;11.22;68.28;92654.94;5110853;28;20228;-70
2023/12/12 10:50:15;;;;;;;10.97;10.27;;;;;;;11.29;68.99;92656.13;5110776;28;20180;-70
2023/12/12 10:52:43;;;;;;;10.77;10.07;;;;;;;11.38;67.88;92652.91;5111313;28;20287;-71
2023/12/12 10:55:13;;;;;;;10.33;9.73;;;;;;;11.24;68.52;92663.25;5116532;28;20180;-71
2023/12/12 10:57:42;;;;;;;10.50;9.80;;;;;;;11.46;68.80;92665.31;5119553;28;20232;-71
2023/12/12 11:00:13;;;;;;;10.27;9.57;;;;;;;11.07;68.81;92679.41;5111622;28;20181;-71
2023/12/12 11:02:43;;;;;;;11.30;10.60;;;;;;;10.89;70.57;92671.53;5110390;28;20241;-70
2023/12/12 11:05:13;;;;;;;10.80;10.20;;;;;;;10.72;74.07;92658.88;5112926;28;20219;-71
2023/12/12 11:07:39;;;;;;;9.60;9.10;;;;;;;10.77;70.57;92673.75;5110600;28;20239;-71
2023/12/12 11:10:10;;;;;;;11.00;10.40;;;;;;;10.78;72.84;92670.84;5111335;28;20203;-71
2023/12/12 11:12:58;;;;;;;11.83;11.03;;;;;;;10.70;72.71;92666.25;5110516;28;20210;-71
2023/12/12 11:15:25;;;;;;;12.67;11.77;;;;;;;10.73;74.44;92668.28;5118040;28;20185;-71
2023/12/12 11:17:51;;;;;;;11.30;10.53;;;;;;;10.83;73.02;92664.81;5110377;28;20232;-71